Time;durP1;ratioP1;P1;durP2;ratioP2;P2;SDS_P1;SDS_P2;PMS_P1;PMS_P2;Temp;Humidity;BMP_temperature;BMP_pressure;BME280_temperature;BME280_humidity;BME280_pressure;Samples;Min_cycle;Max_cycle;Signal;HPM_P1;HPM_P2
2022/01/17 00:01:11;;;;;;;19.90;15.10;;;;;;;0.52;100.00;99221.77;105447;1270;61273;-73
2022/01/17 00:03:39;;;;;;;22.20;17.20;;;;;;;0.49;100.00;99217.47;105315;1271;62595;-73
2022/01/17 00:06:05;;;;;;;20.20;16.10;;;;;;;0.47;100.00;99217.01;105041;1271;75355;-74
2022/01/17 00:08:33;;;;;;;24.00;17.90;;;;;;;0.43;100.00;99215.16;105216;1271;69189;-74
2022/01/17 00:11:00;;;;;;;22.00;18.90;;;;;;;0.41;100.00;99217.29;105279;1271;73204;-74
2022/01/17 00:13:30;;;;;;;20.80;16.10;;;;;;;0.40;100.00;99211.02;105213;1271;61193;-74
2022/01/17 00:16:13;;;;;;;24.10;15.20;;;;;;;0.38;100.00;99204.41;105224;1271;61304;-73
2022/01/17 00:19:05;;;;;;;21.30;16.00;;;;;;;0.37;100.00;99206.38;105275;1271;73852;-74
2022/01/17 00:21:27;;;;;;;20.20;16.10;;;;;;;0.36;100.00;99202.38;105199;1271;69987;-75
2022/01/17 00:23:53;;;;;;;22.90;17.60;;;;;;;0.36;100.00;99198.72;105186;1271;74327;-75
2022/01/17 00:26:20;;;;;;;21.50;16.60;;;;;;;0.34;100.00;99188.44;105212;1271;61250;-74
2022/01/17 00:28:46;;;;;;;20.90;15.90;;;;;;;0.34;100.00;99191.24;105209;1271;61325;-74
2022/01/17 00:31:13;;;;;;;22.20;16.00;;;;;;;0.33;100.00;99183.93;105200;1271;61335;-74
2022/01/17 00:33:39;;;;;;;22.10;16.90;;;;;;;0.32;100.00;99178.02;105228;1271;70416;-72
2022/01/17 00:36:07;;;;;;;20.30;16.20;;;;;;;0.30;100.00;99185.90;104898;1271;72335;-74
2022/01/17 00:38:33;;;;;;;23.10;17.50;;;;;;;0.30;100.00;99193.94;105174;1271;61310;-72
2022/01/17 00:41:00;;;;;;;24.30;19.00;;;;;;;0.30;100.00;99193.61;105203;1271;61177;-73
2022/01/17 00:43:27;;;;;;;26.10;19.30;;;;;;;0.28;100.00;99184.73;105249;1271;61246;-72
2022/01/17 00:45:53;;;;;;;19.80;16.80;;;;;;;0.28;100.00;99178.44;105205;1271;69761;-74
2022/01/17 00:48:20;;;;;;;22.00;15.90;;;;;;;0.28;100.00;99171.65;105206;1271;74106;-74
2022/01/17 00:50:47;;;;;;;21.20;17.30;;;;;;;0.26;100.00;99177.27;105151;1271;61190;-74
2022/01/17 00:53:13;;;;;;;20.30;16.30;;;;;;;0.25;100.00;99168.91;105215;1271;61208;-73
2022/01/17 00:55:40;;;;;;;24.50;17.20;;;;;;;0.24;100.00;99164.21;105245;1271;61285;-76
2022/01/17 00:58:07;;;;;;;23.00;18.40;;;;;;;0.24;100.00;99160.02;105229;1271;70380;-74
2022/01/17 01:00:34;;;;;;;22.70;17.70;;;;;;;0.24;100.00;99159.48;105195;1271;73287;-75
2022/01/17 01:03:01;;;;;;;22.00;17.50;;;;;;;0.25;100.00;99156.66;105241;1271;61465;-73
2022/01/17 01:05:28;;;;;;;23.80;18.80;;;;;;;0.26;100.00;99157.67;105202;1271;61347;-72
2022/01/17 01:07:55;;;;;;;23.70;18.00;;;;;;;0.27;100.00;99158.70;105019;1271;76179;-74
2022/01/17 01:10:22;;;;;;;21.60;16.70;;;;;;;0.29;100.00;99156.41;104720;1271;260439;-76
2022/01/17 01:12:51;;;;;;;19.40;15.50;;;;;;;0.30;100.00;99149.21;104963;1271;74643;-74
2022/01/17 01:15:22;;;;;;;22.80;16.50;;;;;;;0.32;100.00;99143.91;105176;1271;61290;-74
2022/01/17 01:28:52;;;;;;;20.00;15.30;;;;;;;0.42;100.00;99129.35;105277;1271;61542;-75
2022/01/17 01:31:29;;;;;;;19.60;14.60;;;;;;;0.45;100.00;99121.61;105247;1271;61286;-73
2022/01/17 01:34:02;;;;;;;19.80;16.10;;;;;;;0.47;100.00;99114.73;105185;1271;75219;-72
2022/01/17 01:36:29;;;;;;;19.30;14.50;;;;;;;0.49;100.00;99108.04;105183;1270;69241;-73
2022/01/17 01:38:56;;;;;;;19.50;16.10;;;;;;;0.52;100.00;99101.69;105203;1271;73567;-73
2022/01/17 01:41:22;;;;;;;20.30;14.80;;;;;;;0.55;100.00;99100.90;105183;1271;61388;-73
2022/01/17 01:43:49;;;;;;;19.50;15.90;;;;;;;0.56;100.00;99100.70;105170;1271;61292;-72
2022/01/17 01:46:19;;;;;;;19.60;14.80;;;;;;;0.58;100.00;99100.98;105267;1271;76066;-73
2022/01/17 01:48:47;;;;;;;17.80;13.80;;;;;;;0.61;100.00;99093.60;105209;1271;69325;-73
2022/01/17 01:51:14;;;;;;;17.50;13.40;;;;;;;0.63;100.00;99083.23;105339;1268;73107;-74
2022/01/17 01:53:41;;;;;;;18.20;13.90;;;;;;;0.65;100.00;99081.24;105217;1271;61247;-73
2022/01/17 01:56:08;;;;;;;15.60;13.20;;;;;;;0.68;100.00;99072.10;104933;1271;62178;-72
2022/01/17 01:58:34;;;;;;;15.30;12.00;;;;;;;0.69;100.00;99059.45;105228;1271;76646;-73
2022/01/17 02:01:01;;;;;;;16.10;12.60;;;;;;;0.71;100.00;99054.70;105199;1271;69340;-74
2022/01/17 02:03:27;;;;;;;16.40;13.00;;;;;;;0.74;100.00;99055.30;105221;1271;74516;-74
2022/01/17 02:05:55;;;;;;;14.10;11.50;;;;;;;0.76;100.00;99050.53;105238;1271;61258;-75
2022/01/17 02:08:22;;;;;;;13.40;11.70;;;;;;;0.77;100.00;99046.48;105257;1271;61272;-73
2022/01/17 02:10:48;;;;;;;13.50;10.80;;;;;;;0.80;100.00;99045.35;105224;1271;75443;-73
2022/01/17 02:13:15;;;;;;;13.30;10.20;;;;;;;0.82;100.00;99039.00;105223;1271;61211;-74
2022/01/17 02:15:43;;;;;;;13.20;9.70;;;;;;;0.85;100.00;99037.88;105192;1271;61189;-75
2022/01/17 02:18:12;;;;;;;12.40;9.60;;;;;;;0.89;100.00;99043.21;105212;1271;61277;-74
2022/01/17 02:20:43;;;;;;;10.00;8.80;;;;;;;0.90;100.00;99036.53;105221;1271;62062;-75
2022/01/17 02:23:11;;;;;;;11.30;9.50;;;;;;;0.93;100.00;99029.25;105008;1271;76157;-73
2022/01/17 02:25:38;;;;;;;13.20;10.70;;;;;;;0.96;100.00;99019.56;105273;1271;69155;-73
2022/01/17 02:28:04;;;;;;;10.80;9.40;;;;;;;0.98;100.00;99012.34;104968;1271;61326;-73
2022/01/17 02:30:32;;;;;;;11.00;8.80;;;;;;;1.00;100.00;99003.01;105215;1271;61291;-73
2022/01/17 02:33:00;;;;;;;11.80;10.00;;;;;;;1.01;100.00;98995.27;105215;1271;61324;-74
2022/01/17 02:35:28;;;;;;;9.60;8.40;;;;;;;1.03;100.00;98983.52;104486;1271;1002696;-73
2022/01/17 02:37:56;;;;;;;11.00;8.80;;;;;;;1.04;100.00;98991.54;105265;1271;69230;-74
2022/01/17 02:40:24;;;;;;;11.70;9.60;;;;;;;1.06;100.00;98982.90;105030;1271;73353;-74
2022/01/17 02:43:01;;;;;;;11.30;9.50;;;;;;;1.09;100.00;98977.75;105198;1271;61266;-73
2022/01/17 02:45:34;;;;;;;9.40;8.40;;;;;;;1.10;100.00;98965.44;105108;1271;62325;-76
2022/01/17 02:48:05;;;;;;;12.00;10.20;;;;;;;1.13;100.00;98966.23;105210;1271;75584;-73
2022/01/17 02:50:31;;;;;;;9.50;8.20;;;;;;;1.15;100.00;98966.55;105470;1271;69346;-73
2022/01/17 02:53:05;;;;;;;11.50;9.20;;;;;;;1.18;100.00;98964.88;105009;1271;74165;-74
2022/01/17 02:55:31;;;;;;;10.90;9.00;;;;;;;1.20;100.00;98968.84;105069;1271;61379;-73
2022/01/17 02:57:58;;;;;;;9.90;8.90;;;;;;;1.22;100.00;98957.59;105206;1271;61815;-74
2022/01/17 03:00:31;;;;;;;14.10;10.50;;;;;;;1.25;100.00;98951.20;105185;1271;74118;-73
2022/01/17 03:02:58;;;;;;;10.50;8.90;;;;;;;1.27;100.00;98959.17;105186;1271;69862;-73
2022/01/17 03:05:24;;;;;;;11.90;10.50;;;;;;;1.30;100.00;98959.97;105232;1271;72426;-74
2022/01/17 03:07:51;;;;;;;11.00;9.30;;;;;;;1.32;100.00;98961.99;105231;1271;61272;-73
2022/01/17 03:10:39;;;;;;;11.20;9.60;;;;;;;1.35;100.00;98962.64;105013;1271;61315;-74
2022/01/17 03:13:09;;;;;;;10.60;8.80;;;;;;;1.36;100.00;98960.49;105208;1271;75290;-73
2022/01/17 03:15:37;;;;;;;11.40;9.50;;;;;;;1.37;100.00;98965.38;105255;1271;70494;-73
2022/01/17 03:18:04;;;;;;;11.40;9.90;;;;;;;1.38;100.00;98967.27;105233;1271;74240;-73
2022/01/17 03:20:31;;;;;;;12.90;10.20;;;;;;;1.40;100.00;98971.23;105111;1271;61339;-72
2022/01/17 03:22:58;;;;;;;15.10;10.40;;;;;;;1.42;100.00;98961.02;105355;1271;61218;-74
2022/01/17 03:25:25;;;;;;;12.30;10.90;;;;;;;1.44;100.00;98955.87;104985;1271;76252;-73
2022/01/17 03:27:51;;;;;;;13.10;10.80;;;;;;;1.44;100.00;98954.83;105210;1271;69231;-74
2022/01/17 03:30:18;;;;;;;12.50;11.10;;;;;;;1.45;100.00;98954.27;105148;1270;61354;-74
2022/01/17 03:32:45;;;;;;;12.10;10.60;;;;;;;1.46;100.00;98952.84;105181;1271;61271;-73
2022/01/17 03:35:11;;;;;;;14.50;11.80;;;;;;;1.46;100.00;98961.42;105151;1271;61147;-74
2022/01/17 03:37:38;;;;;;;15.20;11.30;;;;;;;1.46;100.00;98967.55;105206;1271;76255;-73
2022/01/17 03:40:05;;;;;;;13.90;11.70;;;;;;;1.47;100.00;98966.80;104945;1272;61357;-74
2022/01/17 03:42:32;;;;;;;15.20;12.10;;;;;;;1.45;100.00;98966.52;105203;1271;72121;-74
2022/01/17 03:45:00;;;;;;;15.50;12.80;;;;;;;1.45;100.00;98959.16;105194;1271;61288;-74
2022/01/17 03:47:27;;;;;;;14.80;11.70;;;;;;;1.44;100.00;98955.70;105413;1271;61377;-72
2022/01/17 03:49:53;;;;;;;14.40;12.10;;;;;;;1.44;100.00;98957.27;105222;1271;61269;-74
2022/01/17 03:52:20;;;;;;;15.00;12.10;;;;;;;1.43;100.00;98949.10;105144;1271;61244;-75
2022/01/17 03:54:47;;;;;;;13.90;11.00;;;;;;;1.44;100.00;98952.54;105222;1271;61277;-75
2022/01/17 03:57:13;;;;;;;16.70;12.60;;;;;;;1.44;100.00;98956.91;105205;1270;61265;-73
2022/01/17 03:59:40;;;;;;;14.80;11.40;;;;;;;1.44;100.00;98960.96;104954;1271;61468;-73
2022/01/17 04:02:06;;;;;;;14.70;11.90;;;;;;;1.44;100.00;98953.09;105213;1270;76136;-74
2022/01/17 04:04:33;;;;;;;17.00;14.20;;;;;;;1.44;100.00;98946.42;105188;1271;61343;-73
2022/01/17 04:06:59;;;;;;;15.90;12.70;;;;;;;1.42;100.00;98944.55;105199;1271;73361;-74
2022/01/17 04:09:26;;;;;;;15.30;12.30;;;;;;;1.42;100.00;98947.89;105197;1271;61391;-73
2022/01/17 04:11:52;;;;;;;18.00;13.30;;;;;;;1.40;100.00;98945.52;105221;1271;61894;-73
2022/01/17 04:14:19;;;;;;;14.40;12.50;;;;;;;1.39;100.00;98945.35;105174;1271;61337;-74
2022/01/17 04:16:46;;;;;;;13.70;12.00;;;;;;;1.38;100.00;98942.20;105348;1271;68841;-75
2022/01/17 04:19:13;;;;;;;17.10;14.30;;;;;;;1.38;100.00;98943.30;105195;1271;73481;-73
2022/01/17 04:21:40;;;;;;;18.10;14.60;;;;;;;1.37;100.00;98933.86;105514;1271;61258;-74
2022/01/17 04:24:06;;;;;;;15.10;13.20;;;;;;;1.38;100.00;98936.65;105170;1271;61727;-75
2022/01/17 04:26:33;;;;;;;16.80;12.70;;;;;;;1.39;100.00;98941.17;105397;1271;75451;-74
2022/01/17 04:28:59;;;;;;;13.60;11.40;;;;;;;1.38;100.00;98940.30;106219;1271;69367;-73
2022/01/17 04:31:26;;;;;;;16.60;13.20;;;;;;;1.39;100.00;98942.02;106332;1269;61266;-74
2022/01/17 04:33:53;;;;;;;17.70;15.10;;;;;;;1.41;100.00;98943.73;105946;1270;61238;-75
2022/01/17 04:36:20;;;;;;;19.00;15.90;;;;;;;1.43;100.00;98946.11;105190;1271;61365;-72
2022/01/17 04:38:46;;;;;;;16.50;13.50;;;;;;;1.45;100.00;98945.88;105225;1271;73704;-76
2022/01/17 04:41:17;;;;;;;16.00;13.90;;;;;;;1.48;100.00;98939.48;105259;1271;70512;-72
2022/01/17 04:46:16;;;;;;;16.70;13.70;;;;;;;1.53;100.00;98936.15;105262;1271;61406;-76
2022/01/17 04:48:42;;;;;;;17.30;13.60;;;;;;;1.57;100.00;98937.63;105258;1271;61338;-76
2022/01/17 04:51:09;;;;;;;16.70;13.50;;;;;;;1.59;100.00;98934.77;105225;1271;61208;-77
2022/01/17 04:53:36;;;;;;;17.80;13.50;;;;;;;1.61;100.00;98928.02;105247;1271;69246;-76
2022/01/17 04:56:03;;;;;;;16.70;13.90;;;;;;;1.65;100.00;98919.16;105295;1271;73148;-75
2022/01/17 04:58:30;;;;;;;17.30;13.60;;;;;;;1.68;100.00;98910.65;105044;1271;61198;-74
2022/01/17 05:00:56;;;;;;;17.70;14.40;;;;;;;1.68;100.00;98904.15;105466;1271;61148;-75
2022/01/17 05:03:25;;;;;;;16.80;12.70;;;;;;;1.70;100.00;98899.55;105620;1271;75604;-75
2022/01/17 05:05:52;;;;;;;17.70;14.10;;;;;;;1.71;100.00;98900.91;105683;1271;70400;-75
2022/01/17 05:08:19;;;;;;;20.50;15.40;;;;;;;1.72;100.00;98891.43;105632;1271;74475;-74
2022/01/17 05:10:50;;;;;;;19.10;13.30;;;;;;;1.73;100.00;98882.98;105747;1271;61256;-75
2022/01/17 05:13:22;;;;;;;21.60;15.60;;;;;;;1.71;100.00;98886.17;105883;1271;61145;-74
2022/01/17 05:16:07;;;;;;;20.90;14.30;;;;;;;1.74;100.00;98885.05;105540;1271;76609;-73
2022/01/17 05:21:00;;;;;;;26.90;18.80;;;;;;;1.78;100.00;98878.63;105853;1271;74232;-72
2022/01/17 05:23:27;;;;;;;25.10;18.50;;;;;;;1.79;100.00;98874.05;107292;1271;61060;-72
2022/01/17 05:25:53;;;;;;;22.50;16.30;;;;;;;1.80;100.00;98873.30;108315;1271;59729;-73
2022/01/17 05:28:20;;;;;;;21.30;16.00;;;;;;;1.81;100.00;98873.98;108322;1271;75132;-72
2022/01/17 05:30:47;;;;;;;21.40;15.50;;;;;;;1.81;100.00;98866.95;108201;1271;69558;-73
2022/01/17 05:33:13;;;;;;;19.90;14.60;;;;;;;1.83;100.00;98867.08;107765;1271;73382;-75
2022/01/17 05:35:40;;;;;;;21.10;14.90;;;;;;;1.84;100.00;98859.50;105290;1271;61383;-74
2022/01/17 05:38:06;;;;;;;22.80;16.80;;;;;;;1.84;100.00;98854.95;105281;1271;61130;-75
2022/01/17 05:40:33;;;;;;;22.20;15.80;;;;;;;1.85;100.00;98853.18;105261;1271;61269;-75
2022/01/17 05:42:59;;;;;;;22.70;16.00;;;;;;;1.86;100.00;98851.21;105006;1271;61377;-74
2022/01/17 05:45:26;;;;;;;22.50;17.00;;;;;;;1.87;100.00;98846.61;105221;1271;61272;-74
2022/01/17 05:47:53;;;;;;;22.10;14.80;;;;;;;1.88;100.00;98841.34;104960;1271;61364;-74
2022/01/17 05:50:19;;;;;;;22.80;15.70;;;;;;;1.88;100.00;98835.19;105229;1271;61173;-75
2022/01/17 05:52:46;;;;;;;21.50;14.80;;;;;;;1.89;100.00;98840.23;105245;1271;61282;-74
2022/01/17 05:55:15;;;;;;;22.20;15.50;;;;;;;1.90;100.00;98835.49;105251;1271;70471;-73
2022/01/17 05:57:42;;;;;;;22.90;15.00;;;;;;;1.90;100.00;98822.52;105229;1271;74216;-74
2022/01/17 06:00:12;;;;;;;21.80;16.30;;;;;;;1.90;100.00;98817.79;105326;1271;61388;-73
2022/01/17 06:02:39;;;;;;;21.90;14.60;;;;;;;1.90;100.00;98816.02;105339;1271;61529;-77
2022/01/17 06:05:07;;;;;;;23.30;14.70;;;;;;;1.92;100.00;98813.52;105207;1271;76519;-75
2022/01/17 06:07:34;;;;;;;19.80;14.10;;;;;;;1.94;100.00;98813.77;105263;1271;69499;-75
2022/01/17 06:10:00;;;;;;;20.70;14.60;;;;;;;1.96;100.00;98814.06;105225;1271;73242;-72
2022/01/17 06:12:27;;;;;;;24.70;14.30;;;;;;;1.97;100.00;98817.19;105215;1271;61271;-73
2022/01/17 06:14:53;;;;;;;18.20;13.50;;;;;;;1.99;100.00;98816.96;105253;1271;61701;-73
2022/01/17 06:17:20;;;;;;;23.20;13.70;;;;;;;2.02;100.00;98823.14;105199;1271;61144;-74
2022/01/17 06:19:46;;;;;;;18.40;12.40;;;;;;;2.04;100.00;98811.86;104970;1274;69628;-75
2022/01/17 06:22:13;;;;;;;18.00;12.20;;;;;;;2.07;100.00;98820.15;105188;1271;73639;-74
2022/01/17 06:24:40;;;;;;;17.70;12.70;;;;;;;2.09;100.00;98818.53;104907;1271;61397;-75
2022/01/17 06:27:06;;;;;;;15.40;11.20;;;;;;;2.10;100.00;98818.12;105235;1271;61247;-76
2022/01/17 06:29:33;;;;;;;17.10;12.30;;;;;;;2.12;100.00;98809.28;105226;1271;75509;-73
2022/01/17 06:32:01;;;;;;;20.80;13.70;;;;;;;2.16;100.00;98802.50;105221;1271;69470;-74
2022/01/17 06:34:27;;;;;;;19.10;14.20;;;;;;;2.19;100.00;98782.06;105193;1271;74242;-73
2022/01/17 06:36:54;;;;;;;20.40;13.50;;;;;;;2.21;100.00;98782.86;105231;1271;61313;-73
2022/01/17 06:39:20;;;;;;;18.60;12.40;;;;;;;2.23;100.00;98774.02;105271;1271;61075;-76
2022/01/17 06:41:47;;;;;;;15.70;10.60;;;;;;;2.24;100.00;98767.86;105195;1271;61223;-74
2022/01/17 06:44:14;;;;;;;14.40;11.10;;;;;;;2.24;100.00;98763.11;105175;1271;70395;-75
2022/01/17 06:46:40;;;;;;;13.70;10.60;;;;;;;2.25;100.00;98758.55;105212;1270;73501;-74
2022/01/17 06:49:07;;;;;;;15.20;11.40;;;;;;;2.26;100.00;98774.25;105189;1271;61401;-74
2022/01/17 06:51:33;;;;;;;15.80;10.40;;;;;;;2.28;100.00;98767.54;105205;1271;61935;-76
2022/01/17 06:54:00;;;;;;;16.20;11.80;;;;;;;2.29;100.00;98769.77;105184;1271;61125;-75
2022/01/17 06:56:26;;;;;;;15.80;11.70;;;;;;;2.30;100.00;98759.04;105231;1271;61189;-75
2022/01/17 06:58:53;;;;;;;21.50;14.30;;;;;;;2.31;100.00;98754.25;105213;1271;73337;-76
2022/01/17 07:01:20;;;;;;;18.80;12.40;;;;;;;2.31;100.00;98753.74;105128;1271;61349;-75
2022/01/17 07:03:49;;;;;;;18.70;13.00;;;;;;;2.30;100.00;98748.89;105212;1271;61764;-74
2022/01/17 07:06:17;;;;;;;18.90;13.50;;;;;;;2.27;100.00;98737.60;105388;1271;74695;-74
2022/01/17 07:08:45;;;;;;;20.70;13.10;;;;;;;2.22;100.00;98733.94;105212;1271;70841;-75
2022/01/17 07:11:13;;;;;;;18.60;13.00;;;;;;;2.16;100.00;98725.55;105400;1271;74510;-74
2022/01/17 07:13:40;;;;;;;24.00;15.90;;;;;;;2.08;100.00;98738.99;105213;1271;61310;-75
2022/01/17 07:16:07;;;;;;;21.20;14.10;;;;;;;1.99;100.00;98755.77;104945;1271;61302;-74
2022/01/17 07:18:33;;;;;;;23.80;16.10;;;;;;;1.92;100.00;98767.95;105177;1271;76938;-76
2022/01/17 07:21:00;;;;;;;18.60;13.40;;;;;;;1.84;100.00;98775.08;105234;1271;61338;-76
2022/01/17 07:23:26;;;;;;;20.70;15.40;;;;;;;1.75;100.00;98786.93;105126;1270;61355;-75
2022/01/17 07:25:53;;;;;;;20.00;14.00;;;;;;;1.69;100.00;98800.30;105170;1271;61281;-76
2022/01/17 07:28:19;;;;;;;18.20;13.50;;;;;;;1.64;100.00;98800.27;105160;1271;61263;-74
2022/01/17 07:30:46;;;;;;;19.10;14.70;;;;;;;1.60;100.00;98804.81;105212;1271;75187;-77
2022/01/17 07:33:13;;;;;;;23.90;16.20;;;;;;;1.56;100.00;98812.79;104965;1272;70033;-74
2022/01/17 07:35:39;;;;;;;23.80;15.90;;;;;;;1.54;100.00;98809.20;105182;1271;73208;-77
2022/01/17 07:38:06;;;;;;;22.80;17.50;;;;;;;1.51;100.00;98776.72;105208;1271;61338;-77
2022/01/17 07:40:34;;;;;;;21.50;15.40;;;;;;;1.51;100.00;98741.35;105222;1271;61328;-75
2022/01/17 07:43:01;;;;;;;23.70;17.00;;;;;;;1.52;100.00;98721.73;104967;1272;76227;-74
2022/01/17 07:45:30;;;;;;;18.80;14.00;;;;;;;1.51;100.00;98699.67;104488;1271;1002618;-77
2022/01/17 07:50:27;;;;;;;20.00;14.90;;;;;;;1.56;100.00;98674.66;105009;1271;61306;-76
2022/01/17 07:52:54;;;;;;;22.10;15.00;;;;;;;1.58;100.00;98677.41;105181;1271;61186;-75
2022/01/17 07:55:21;;;;;;;23.00;16.30;;;;;;;1.59;100.00;98688.40;105213;1271;75780;-77
2022/01/17 07:57:48;;;;;;;21.40;15.60;;;;;;;1.61;100.00;98687.80;105251;1271;69707;-75
2022/01/17 08:00:22;;;;;;;19.00;13.80;;;;;;;1.64;100.00;98669.64;105406;1271;73333;-75
2022/01/17 08:02:50;;;;;;;19.40;13.60;;;;;;;1.70;100.00;98661.55;105327;1271;61412;-76
2022/01/17 08:05:17;;;;;;;19.60;14.90;;;;;;;1.77;100.00;98653.61;105203;1271;61198;-76
2022/01/17 08:07:44;;;;;;;18.90;14.20;;;;;;;1.80;100.00;98633.20;105217;1271;75150;-74
2022/01/17 08:10:12;;;;;;;19.50;13.40;;;;;;;1.81;100.00;98617.90;105205;1271;69226;-77
2022/01/17 08:12:41;;;;;;;17.30;11.70;;;;;;;1.83;100.00;98606.44;105446;1271;72685;-76
2022/01/17 08:15:09;;;;;;;19.70;13.80;;;;;;;1.84;100.00;98591.67;104938;1271;61287;-75
2022/01/17 08:17:35;;;;;;;22.50;14.90;;;;;;;1.87;100.00;98576.15;105114;1271;61208;-77
2022/01/17 08:20:03;;;;;;;20.40;15.50;;;;;;;1.89;100.00;98570.29;105236;1271;75650;-74
2022/01/17 08:22:30;;;;;;;22.10;15.70;;;;;;;1.92;100.00;98563.51;105436;1271;70399;-74
2022/01/17 08:24:56;;;;;;;19.10;14.40;;;;;;;1.95;100.00;98555.51;104938;1274;61276;-74
2022/01/17 08:27:23;;;;;;;19.80;14.40;;;;;;;1.99;100.00;98560.25;105277;1271;61308;-73
2022/01/17 08:29:50;;;;;;;35.90;24.20;;;;;;;2.03;100.00;98566.43;105312;1271;61240;-74
2022/01/17 08:32:16;;;;;;;23.20;16.60;;;;;;;2.06;100.00;98579.08;105224;1271;61255;-74
2022/01/17 08:34:43;;;;;;;18.50;14.10;;;;;;;2.10;100.00;98585.43;105279;1271;61251;-74
2022/01/17 08:37:09;;;;;;;16.00;13.00;;;;;;;2.13;100.00;98585.66;105255;1271;61409;-74
2022/01/17 08:39:36;;;;;;;16.90;12.20;;;;;;;2.17;100.00;98570.97;105256;1271;61300;-74
2022/01/17 08:42:10;;;;;;;16.50;12.90;;;;;;;2.19;100.00;98546.00;105275;1271;61311;-74
2022/01/17 08:44:38;;;;;;;18.00;13.60;;;;;;;2.20;100.00;98538.55;105286;1271;75401;-75
2022/01/17 08:47:06;;;;;;;17.30;11.60;;;;;;;2.22;100.00;98525.70;105375;1271;67343;-74
2022/01/17 08:49:32;;;;;;;18.60;13.40;;;;;;;2.25;100.00;98515.59;104899;1271;72094;-75
2022/01/17 08:51:59;;;;;;;14.70;11.60;;;;;;;2.29;100.00;98524.74;105233;1271;61409;-74
2022/01/17 08:54:25;;;;;;;14.30;11.30;;;;;;;2.34;100.00;98507.52;104932;1272;61393;-74
2022/01/17 08:56:52;;;;;;;13.80;10.50;;;;;;;2.39;100.00;98482.23;105242;1271;75296;-74
2022/01/17 08:59:18;;;;;;;14.90;10.40;;;;;;;2.44;100.00;98493.24;105242;1271;61375;-74
2022/01/17 09:01:45;;;;;;;13.20;10.60;;;;;;;2.49;100.00;98494.98;105267;1271;61297;-75
2022/01/17 09:04:11;;;;;;;13.80;11.60;;;;;;;2.54;100.00;98491.77;105028;1272;61371;-75
2022/01/17 09:06:38;;;;;;;15.10;10.60;;;;;;;2.58;100.00;98498.44;105215;1271;61299;-78
2022/01/17 09:09:05;;;;;;;13.80;11.40;;;;;;;2.61;100.00;98469.89;105287;1271;75915;-75
2022/01/17 09:11:31;;;;;;;14.50;11.00;;;;;;;2.66;100.00;98468.65;105224;1271;61272;-74
2022/01/17 09:13:58;;;;;;;10.80;9.10;;;;;;;2.68;100.00;98482.39;105227;1271;73654;-74
2022/01/17 09:16:24;;;;;;;15.40;11.50;;;;;;;2.69;100.00;98474.45;104935;1271;61260;-76
2022/01/17 09:18:51;;;;;;;12.20;9.60;;;;;;;2.70;100.00;98482.52;105255;1271;61297;-76
2022/01/17 09:21:18;;;;;;;14.60;9.70;;;;;;;2.70;100.00;98492.16;105228;1271;75674;-75
2022/01/17 09:23:44;;;;;;;10.70;9.20;;;;;;;2.69;100.00;98488.34;105246;1271;70167;-74
2022/01/17 09:26:13;;;;;;;13.60;9.80;;;;;;;2.67;100.00;98472.09;105205;1270;73639;-77
2022/01/17 09:28:39;;;;;;;11.30;9.30;;;;;;;2.64;100.00;98469.94;104946;1271;61232;-76
2022/01/17 09:31:06;;;;;;;12.50;9.90;;;;;;;2.61;100.00;98487.58;105263;1271;63637;-77
2022/01/17 09:33:34;;;;;;;13.90;10.50;;;;;;;2.59;100.00;98469.29;105240;1271;75834;-73
2022/01/17 09:36:00;;;;;;;11.10;9.90;;;;;;;2.52;100.00;98480.63;105175;1271;68299;-73
2022/01/17 09:38:27;;;;;;;11.60;9.30;;;;;;;2.47;100.00;98476.66;105227;1271;73253;-74
2022/01/17 09:40:54;;;;;;;13.60;9.50;;;;;;;2.41;100.00;98452.14;105671;1271;61252;-76
2022/01/17 09:43:21;;;;;;;14.00;10.60;;;;;;;2.37;100.00;98426.55;105855;1271;61141;-71
2022/01/17 09:45:48;;;;;;;13.70;10.90;;;;;;;2.34;100.00;98416.89;105649;1271;75073;-72
2022/01/17 09:48:21;;;;;;;11.60;9.60;;;;;;;2.30;100.00;98408.98;105208;1271;69202;-74
2022/01/17 09:51:03;;;;;;;13.00;10.60;;;;;;;2.27;100.00;98425.61;105238;1271;73364;-74
2022/01/17 09:53:38;;;;;;;12.30;9.90;;;;;;;2.21;100.00;98425.33;105176;1271;61321;-75
2022/01/17 09:56:09;;;;;;;11.50;9.90;;;;;;;2.16;100.00;98405.57;105203;1271;61783;-74
2022/01/17 09:58:38;;;;;;;11.80;9.40;;;;;;;2.11;100.00;98407.15;105235;1271;75329;-74
2022/01/17 10:01:07;;;;;;;14.40;11.10;;;;;;;2.09;100.00;98403.95;105220;1271;70221;-75
2022/01/17 10:03:33;;;;;;;15.10;10.90;;;;;;;2.06;100.00;98400.88;105247;1271;73147;-75
2022/01/17 10:06:00;;;;;;;11.30;9.40;;;;;;;2.04;100.00;98410.09;105197;1271;61471;-75
2022/01/17 10:08:27;;;;;;;13.10;9.20;;;;;;;2.02;100.00;98408.93;105246;1271;60805;-75
2022/01/17 10:11:04;;;;;;;12.40;9.90;;;;;;;2.02;100.00;98397.40;105206;1271;73462;-74
2022/01/17 10:13:33;;;;;;;12.30;9.30;;;;;;;2.03;100.00;98380.34;105238;1271;69107;-73
2022/01/17 10:16:11;;;;;;;10.30;8.60;;;;;;;2.08;100.00;98365.80;105206;1271;74857;-76
2022/01/17 10:19:02;;;;;;;12.90;10.00;;;;;;;2.11;100.00;98351.30;105168;1271;61231;-74
2022/01/17 10:21:51;;;;;;;11.30;8.70;;;;;;;2.15;100.00;98346.17;105056;1271;61260;-74
2022/01/17 10:35:12;;;;;;;15.20;10.80;;;;;;;2.57;100.00;98322.78;105008;1271;61148;-75
2022/01/17 10:37:39;;;;;;;11.40;9.40;;;;;;;2.61;100.00;98331.17;105217;1271;76480;-75
2022/01/17 10:40:14;;;;;;;10.90;9.20;;;;;;;2.64;100.00;98333.34;105142;1271;69444;-74
2022/01/17 10:42:45;;;;;;;11.00;8.70;;;;;;;2.63;100.00;98324.44;105292;1271;73257;-73
2022/01/17 10:45:15;;;;;;;8.40;7.30;;;;;;;2.60;100.00;98319.98;105109;1274;61211;-74
2022/01/17 10:47:44;;;;;;;11.30;8.90;;;;;;;2.60;100.00;98325.29;105232;1271;62084;-73
2022/01/17 10:50:20;;;;;;;9.10;7.30;;;;;;;2.60;100.00;98321.05;105221;1271;74902;-73
2022/01/17 10:52:54;;;;;;;9.60;8.10;;;;;;;2.61;100.00;98320.63;105267;1271;69653;-74
2022/01/17 10:55:30;;;;;;;11.00;8.60;;;;;;;2.63;100.00;98321.62;105419;1271;74179;-79
2022/01/17 10:58:21;;;;;;;11.40;9.60;;;;;;;2.65;100.00;98311.91;105384;1271;61316;-79
2022/01/17 11:00:52;;;;;;;11.50;8.60;;;;;;;2.67;100.00;98309.20;105377;1271;61177;-79
2022/01/17 11:03:23;;;;;;;10.70;7.80;;;;;;;2.69;100.00;98308.75;105337;1271;75119;-83
2022/01/17 11:05:55;;;;;;;10.60;7.90;;;;;;;2.70;100.00;98309.77;105355;1271;70328;-80
2022/01/17 11:08:25;;;;;;;9.00;7.60;;;;;;;2.69;100.00;98303.49;105281;1271;73396;-82
2022/01/17 11:10:55;;;;;;;8.90;6.60;;;;;;;2.67;100.00;98295.83;105712;1271;61192;-82
2022/01/17 11:13:23;;;;;;;;;;;;;;;2.66;100.00;98293.25;105425;1271;61404;-83
2022/01/17 11:15:57;;;;;;;8.70;6.70;;;;;;;2.65;100.00;98288.58;105542;1271;75383;-74
2022/01/17 11:18:28;;;;;;;8.20;6.10;;;;;;;2.63;100.00;98301.09;105107;1274;69376;-76
2022/01/17 11:21:14;;;;;;;8.20;6.70;;;;;;;2.63;100.00;98302.51;105329;1269;72362;-73
2022/01/17 11:23:45;;;;;;;8.10;6.70;;;;;;;2.60;100.00;98299.83;105393;1271;61233;-78
2022/01/17 11:26:14;;;;;;;8.50;6.00;;;;;;;2.56;100.00;98292.10;105395;1271;61342;-77
2022/01/17 11:28:42;;;;;;;9.10;6.80;;;;;;;2.54;100.00;98284.19;105356;1271;76423;-77
2022/01/17 11:31:13;;;;;;;8.80;6.30;;;;;;;2.51;100.00;98300.28;105405;1271;69275;-76
2022/01/17 11:33:40;;;;;;;8.50;6.10;;;;;;;2.47;100.00;98284.83;105081;1272;74751;-76
2022/01/17 11:36:07;;;;;;;8.30;5.70;;;;;;;2.46;100.00;98289.30;105290;1271;60979;-75
2022/01/17 11:38:44;;;;;;;8.80;5.90;;;;;;;2.45;100.00;98282.27;105240;1271;61218;-74
2022/01/17 11:41:24;;;;;;;9.90;6.50;;;;;;;2.44;100.00;98268.31;105239;1271;74553;-76
2022/01/17 11:44:02;;;;;;;6.70;5.30;;;;;;;2.44;100.00;98261.81;105248;1271;68701;-75
2022/01/17 11:46:43;;;;;;;5.90;5.20;;;;;;;2.42;100.00;98255.94;105492;1271;73261;-76